D/T METAR WX W/DIR W/SPE G/SPE TEMP DEWP
25/02/20 14:20 EGPM 251420Z VRB03KT 9999 FEW040 05/M04 Q0988 N (0°) 3.5mph 5°C -4°C
25/02/20 13:20 EGPM 251320Z 06002KT 9999 FEW040 05/M03 Q0988 NOSIG ENE (60°) 2.3mph 5°C -3°C
25/02/20 12:50 EGPM 251250Z VRB03KT 9999 FEW040 06/M02 Q0989 NOSIG N (0°) 3.5mph 6°C -2°C
25/02/20 12:20 EGPM 251220Z VRB03KT 9999 FEW040 06/M02 Q0989 N (0°) 3.5mph 6°C -2°C
25/02/20 11:20 EGPM 251120Z 00000KT 9999 FEW040 05/M02 Q0989 NOSIG N (0°) 5°C -2°C
25/02/20 10:50 EGPM 251050Z VRB02KT 9999 FEW040 04/M01 Q0990 NOSIG N (0°) 2.3mph 4°C -1°C
25/02/20 10:20 EGPM 251020Z VRB02KT 9999 FEW040 04/M01 Q0990 NOSIG N (0°) 2.3mph 4°C -1°C
25/02/20 09:50 EGPM 250950Z 00000KT 9999 FEW040 03/M01 Q0990 NOSIG N (0°) 3°C -1°C
25/02/20 09:20 EGPM 250920Z 14005KT 9999 FEW040 02/M02 Q0990 NOSIG SE (140°) 5.8mph 2°C -2°C
25/02/20 08:50 EGPM 250850Z 14006KT 120V180 9999 FEW040 02/M02 Q0991 NOSIG SE (140°) 6.9mph 2°C -2°C
25/02/20 08:20 EGPM 250820Z 14006KT 9999 FEW034 02/M02 Q0991 NOSIG SE (140°) 6.9mph 2°C -2°C
25/02/20 07:50 EGPM 250750Z 14007KT 9999 FEW034 02/M02 Q0991 NOSIG SE (140°) 8.1mph 2°C -2°C
25/02/20 07:20 EGPM 250720Z 13004KT 9999 FEW030 01/M02 Q0992 NOSIG SE (130°) 4.6mph 1°C -2°C
25/02/20 06:50 EGPM 250650Z 14005KT 9999 FEW033 02/M01 Q0992 NOSIG SE (140°) 5.8mph 2°C -1°C
25/02/20 06:20 EGPM 250620Z 15006KT 9999 FEW035 02/M02 Q0992 NOSIG SSE (150°) 6.9mph 2°C -2°C
25/02/20 05:50 EGPM 250550Z AUTO 14007KT 9999 SCT035/// 02/M02 Q0992 SE (140°) 8.1mph 2°C -2°C
25/02/20 05:20 EGPM 250520Z AUTO 13006KT 9999 SCT035/// 01/M02 Q0993 SE (130°) 6.9mph 1°C -2°C
25/02/20 04:50 EGPM 250450Z AUTO 12006KT 9999 SCT035/// 01/M02 Q0993 ESE (120°) 6.9mph 1°C -2°C
25/02/20 04:20 EGPM 250420Z AUTO 12006KT 9999 FEW035/// 01/M02 Q0993 ESE (120°) 6.9mph 1°C -2°C
25/02/20 03:50 EGPM 250350Z AUTO 13004KT 9999 SCT032/// 02/M02 Q0993 SE (130°) 4.6mph 2°C -2°C
25/02/20 03:20 EGPM 250320Z AUTO 12006KT 9999 NCD 01/M02 Q0994 ESE (120°) 6.9mph 1°C -2°C
25/02/20 02:50 EGPM 250250Z AUTO 11007KT 9999 NCD 02/M02 Q0994 ESE (110°) 8.1mph 2°C -2°C
25/02/20 02:20 EGPM 250220Z AUTO 10009KT 9999 NCD 02/M02 Q0994 E (100°) 10.4mph 2°C -2°C
25/02/20 01:50 EGPM 250150Z AUTO 10010KT 9999 NCD 02/M02 Q0994 E (100°) 11.5mph 2°C -2°C
25/02/20 01:20 EGPM 250120Z AUTO 11010KT 9999 FEW037/// 02/M02 Q0995 ESE (110°) 11.5mph 2°C -2°C
25/02/20 00:50 EGPM 250050Z AUTO 10010KT 9999 FEW039/// 02/M02 Q0995 E (100°) 11.5mph 2°C -2°C
25/02/20 00:20 EGPM 250020Z AUTO 10009KT 9999 FEW042/// 02/M02 Q0995 E (100°) 10.4mph 2°C -2°C
24/02/20 23:20 EGPM 242320Z AUTO 10010KT 9999 FEW035/// 03/M02 Q0996 E (100°) 11.5mph 3°C -2°C
24/02/20 22:50 EGPM 242250Z AUTO 10010KT 9999 FEW034/// 03/M01 Q0996 E (100°) 11.5mph 3°C -1°C
24/02/20 21:50 EGPM 242150Z AUTO 10012KT 9999 FEW035/// 03/M01 Q0997 E (100°) 13.8mph 3°C -1°C
24/02/20 21:20 EGPM 242120Z AUTO 09013KT 9999 SCT033/// SCT047/// 04/M01 Q0997 E (90°) 15.0mph 4°C -1°C
24/02/20 20:50 EGPM 242050Z AUTO 10012KT 9999 SCT034/// 03/M01 Q0997 E (100°) 13.8mph 3°C -1°C
24/02/20 20:20 EGPM 242020Z AUTO 09012KT 9999 BKN036/// 04/M01 Q0998 E (90°) 13.8mph 4°C -1°C
24/02/20 19:50 EGPM 241950Z AUTO 10011KT 9999 FEW035/// 03/M01 Q0998 E (100°) 12.7mph 3°C -1°C
24/02/20 19:20 EGPM 241920Z AUTO 09012KT 9999 SCT037/// 03/M01 Q0998 E (90°) 13.8mph 3°C -1°C
24/02/20 18:50 EGPM 241850Z AUTO 09011KT 9999 SCT033/// 03/M01 Q0999 E (90°) 12.7mph 3°C -1°C
24/02/20 18:20 EGPM 241820Z AUTO 09009KT 9999 FEW038/// 03/M02 Q0999 E (90°) 10.4mph 3°C -2°C
24/02/20 17:50 EGPM 241750Z AUTO 10008KT 9999 NCD 02/M02 Q1000 E (100°) 9.2mph 2°C -2°C
24/02/20 17:20 EGPM 241720Z AUTO 09010KT 9999 NCD 03/M02 Q1000 E (90°) 11.5mph 3°C -2°C
24/02/20 16:50 EGPM 241650Z AUTO 09009KT 9999 NCD 03/M02 Q1000 E (90°) 10.4mph 3°C -2°C
24/02/20 16:20 EGPM 241620Z AUTO 10009KT 9999 NCD 03/M02 Q1000 E (100°) 10.4mph 3°C -2°C
24/02/20 15:20 EGPM 241520Z 08009KT 9999 FEW040 05/M01 Q1002 NOSIG E (80°) 10.4mph 5°C -1°C
24/02/20 14:50 EGPM 241450Z 08009KT 9999 FEW040 05/M01 Q1002 NOSIG E (80°) 10.4mph 5°C -1°C
24/02/20 14:20 EGPM 241420Z 08008KT 9999 FEW040 05/M01 Q1003 NOSIG E (80°) 9.2mph 5°C -1°C
24/02/20 13:50 EGPM 241350Z 09007KT 9999 FEW040 05/M01 Q1003 E (90°) 8.1mph 5°C -1°C
24/02/20 13:20 EGPM 241320Z 09007KT 9999 FEW040 05/M01 Q1004 NOSIG E (90°) 8.1mph 5°C -1°C
24/02/20 12:50 EGPM 241250Z 11006KT 9999 FEW040 05/M01 Q1005 NOSIG ESE (110°) 6.9mph 5°C -1°C
24/02/20 12:20 EGPM 241220Z 11007KT 9999 FEW040 05/M01 Q1005 NOSIG ESE (110°) 8.1mph 5°C -1°C